Aérodrome :
LOGIN :

S'inscrire | Disclaimer

   EN    FR    IT 

 










Légende :    VFR   VFR Marginal   IFR   IFR Intensif   IFR Très Intensif
Visi : 
Plafond : 
>= 8 km
>= 3000ft
5 à 8 km
1000 à 3000 ft
1500m à 5 km
500 à 1000 ft
800 à 1500m
200 à 500 ft
< 800m
< 200 ft
Symboles :   Orages  Brouillard  Fortes neiges  Fortes précipitations  Vent > 20 kt
SIGMETs :   Divers  Orages  Givrage  Turbulence  Onde Orograph.  Cendres Volcan.






- Altitude de l'aérodrome : 355 ft
- Code IATA : VBS


LIPO - Montichiari - Brescia

DERNIER METAR :
  • 211620Z AUTO 23005KT 200V260 9999 NCD 22/14 Q1005

METARs EXPIRÉS :
  • 211550Z AUTO 24007KT 9999 SCT037/// 23/14 Q1005
  • 211520Z AUTO 24006KT 210V270 9999 BKN034/// 23/14 Q1006
  • 211450Z AUTO 27007KT 240V300 9999 BKN032/// 22/15 Q1005
  • 211420Z AUTO 24006KT 200V280 9999 BKN030/// 22/15 Q1005
  • 211350Z AUTO 24007KT 210V280 9999 SCT029/// 21/15 Q1006
  • 211320Z AUTO 25007KT 220V280 9999 FEW023/// SCT026/// 21/15 Q1006
  • 211250Z AUTO 26007KT 220V290 9999 FEW020/// 21/16 Q1006
  • 211220Z AUTO 26010KT 230V290 9999 SCT017/// 20/16 Q1006
  • 211150Z AUTO 25009KT 220V280 9999 FEW014/// SCT017/// BKN160/// 19/15 Q1006
  • 211120Z AUTO 25010KT 220V280 9999 BKN012/// 18/16 Q1006

TAF TAF LIPO
Valide du 21 à 12h jusqu'au 22 à 12h UTC


211100Z 2112/2212 28012KT 9999 SCT010 BKN040
BECMG 2116/2118 VRB05KT



MET'MAP, la Météo Aéronautique d'un coup d'oeil ! - Copyright ORBIFLY Décembre 2007 - Disclaimer

ORBIFLY MET'MAP TEAM :

Programmation & Développement : Alexandra Zaïnal
Sur une idée originale de : Baudouin d'Aumeries
Soutien technique & logistique : Manuel Goepfert
Assistance : Marc-Olivier Méhu




SOURCES & CREDITS :

   NOAA